createdAt,value
2016-08-15T00:00:39.097Z,0
2016-08-15T00:01:39.107Z,0
2016-08-15T00:02:39.110Z,0
2016-08-15T00:03:39.071Z,0
2016-08-15T00:04:39.065Z,0
2016-08-15T00:05:39.094Z,0
2016-08-15T00:06:39.149Z,0
2016-08-15T00:07:39.084Z,0
2016-08-15T00:08:39.104Z,0
2016-08-15T00:09:39.107Z,0
2016-08-15T00:10:39.142Z,0
2016-08-15T00:11:39.111Z,0
2016-08-15T00:12:39.085Z,0
2016-08-15T00:13:39.086Z,0
2016-08-15T00:14:39.074Z,0
2016-08-15T00:15:39.080Z,0
2016-08-15T00:16:39.094Z,0
2016-08-15T00:17:39.077Z,0
2016-08-15T00:18:39.099Z,0
2016-08-15T00:19:39.096Z,0
2016-08-15T00:20:39.130Z,0
2016-08-15T00:21:39.126Z,0
2016-08-15T00:22:39.153Z,0
2016-08-15T00:23:39.147Z,0
2016-08-15T00:24:39.158Z,0
2016-08-15T00:25:39.197Z,0
2016-08-15T00:26:39.127Z,0
2016-08-15T00:27:39.145Z,0
2016-08-15T00:28:39.142Z,0
2016-08-15T00:29:39.106Z,0
2016-08-15T00:30:39.100Z,0
2016-08-15T00:31:39.190Z,0
2016-08-15T00:32:39.127Z,0
2016-08-15T00:33:39.118Z,0
2016-08-15T00:34:39.142Z,0
2016-08-15T00:35:39.154Z,0
2016-08-15T00:36:39.131Z,0
2016-08-15T00:37:39.127Z,0
2016-08-15T00:38:39.156Z,0
2016-08-15T00:39:39.191Z,0
2016-08-15T00:40:39.115Z,0
2016-08-15T00:41:39.164Z,0
2016-08-15T00:42:39.281Z,0
2016-08-15T00:43:39.216Z,0
2016-08-15T00:44:39.195Z,0
2016-08-15T00:45:39.190Z,0
2016-08-15T00:46:39.176Z,0
2016-08-15T00:47:39.231Z,0
2016-08-15T00:48:39.160Z,0
2016-08-15T00:49:39.124Z,0
2016-08-15T00:50:39.117Z,0
2016-08-15T00:51:39.127Z,0
2016-08-15T00:52:39.111Z,0
2016-08-15T00:53:39.126Z,0
2016-08-15T00:54:39.111Z,0
2016-08-15T00:55:39.181Z,0
2016-08-15T00:56:39.132Z,0
2016-08-15T00:57:39.142Z,0
2016-08-15T00:58:39.172Z,0
2016-08-15T00:59:39.174Z,0
2016-08-15T01:00:39.148Z,0
2016-08-15T01:01:39.126Z,0
2016-08-15T01:02:39.174Z,0
2016-08-15T01:03:39.108Z,0
2016-08-15T01:04:39.133Z,0
2016-08-15T01:05:39.156Z,0
2016-08-15T01:06:39.142Z,0
2016-08-15T01:07:39.179Z,0
2016-08-15T01:08:39.096Z,0
2016-08-15T01:09:39.134Z,0
2016-08-15T01:10:39.172Z,0
2016-08-15T01:11:39.133Z,0
2016-08-15T01:12:39.126Z,0
2016-08-15T01:13:39.159Z,0
2016-08-15T01:14:39.137Z,0
2016-08-15T01:15:39.111Z,0
2016-08-15T01:16:39.369Z,0
2016-08-15T01:17:39.111Z,0
2016-08-15T01:18:39.144Z,0
2016-08-15T01:19:39.167Z,0
2016-08-15T01:20:39.196Z,0
2016-08-15T01:21:39.178Z,0
2016-08-15T01:22:39.168Z,0
2016-08-15T01:23:39.177Z,0
2016-08-15T01:24:39.163Z,0
2016-08-15T01:25:39.179Z,0
2016-08-15T01:26:39.148Z,0
2016-08-15T01:27:39.183Z,0
2016-08-15T01:28:39.148Z,0
2016-08-15T01:29:39.151Z,0
2016-08-15T01:30:39.134Z,0
2016-08-15T01:31:39.194Z,0
2016-08-15T01:32:39.173Z,0
2016-08-15T01:33:39.250Z,0
2016-08-15T01:34:39.332Z,0
2016-08-15T01:35:39.163Z,0
2016-08-15T01:36:39.250Z,0
2016-08-15T01:37:39.147Z,0
2016-08-15T01:38:39.194Z,0
2016-08-15T01:39:39.161Z,0
2016-08-15T01:40:39.167Z,0
2016-08-15T01:41:39.172Z,0
2016-08-15T01:42:39.253Z,0
2016-08-15T01:43:39.161Z,0
2016-08-15T01:44:39.145Z,0
2016-08-15T01:45:39.140Z,0
2016-08-15T01:46:39.146Z,0
2016-08-15T01:47:39.166Z,0
2016-08-15T01:48:39.160Z,0
2016-08-15T01:49:39.172Z,0
2016-08-15T01:50:39.187Z,0
2016-08-15T01:51:39.169Z,0
2016-08-15T01:52:39.162Z,0
2016-08-15T01:53:39.207Z,0
2016-08-15T01:54:39.193Z,0
2016-08-15T01:55:39.243Z,0
2016-08-15T01:56:39.163Z,0
2016-08-15T01:57:39.200Z,0
2016-08-15T01:58:39.191Z,0
2016-08-15T01:59:39.210Z,0
2016-08-15T02:00:39.158Z,0
2016-08-15T02:01:39.210Z,0
2016-08-15T02:02:39.166Z,0
2016-08-15T02:03:39.180Z,0
2016-08-15T02:04:39.186Z,0
2016-08-15T02:05:39.193Z,0
2016-08-15T02:06:39.205Z,0
2016-08-15T02:07:39.219Z,0
2016-08-15T02:08:39.183Z,0
2016-08-15T02:09:39.211Z,0
2016-08-15T02:10:39.199Z,0
2016-08-15T02:11:39.960Z,0
2016-08-15T02:12:39.181Z,0
2016-08-15T02:13:39.228Z,0
2016-08-15T02:14:39.237Z,0
2016-08-15T02:15:39.201Z,0
2016-08-15T02:16:39.192Z,0
2016-08-15T02:17:39.183Z,0
2016-08-15T02:18:39.192Z,0
2016-08-15T02:19:39.198Z,0
2016-08-15T02:20:39.260Z,0
2016-08-15T02:21:39.202Z,0
2016-08-15T02:22:39.201Z,0
2016-08-15T02:23:39.237Z,0
2016-08-15T02:24:39.230Z,0
2016-08-15T02:25:39.256Z,0
2016-08-15T02:26:39.239Z,0
2016-08-15T02:27:39.208Z,0
2016-08-15T02:28:39.229Z,0
2016-08-15T02:29:39.272Z,0
2016-08-15T02:30:39.228Z,0
2016-08-15T02:31:39.175Z,0
2016-08-15T02:32:39.224Z,0
2016-08-15T02:33:39.211Z,0
2016-08-15T02:34:39.178Z,0
2016-08-15T02:35:39.212Z,0
2016-08-15T02:36:39.195Z,0
2016-08-15T02:37:39.195Z,0
2016-08-15T02:38:39.210Z,0
2016-08-15T02:39:39.208Z,0
2016-08-15T02:40:39.221Z,0
2016-08-15T02:41:39.208Z,0
2016-08-15T02:42:39.230Z,0
2016-08-15T02:43:39.215Z,0
2016-08-15T02:44:39.204Z,0
2016-08-15T02:45:40.307Z,0
2016-08-15T02:46:39.227Z,0
2016-08-15T02:47:39.225Z,0
2016-08-15T02:48:39.210Z,0
2016-08-15T02:49:39.246Z,0
2016-08-15T02:50:39.238Z,0
2016-08-15T02:51:39.229Z,0
2016-08-15T02:52:39.192Z,0
2016-08-15T02:53:39.241Z,0
2016-08-15T02:54:39.220Z,0
2016-08-15T02:55:39.218Z,0
2016-08-15T02:56:39.297Z,0
2016-08-15T02:57:39.211Z,0
2016-08-15T02:58:39.263Z,0
2016-08-15T02:59:39.224Z,0
2016-08-15T03:00:39.239Z,0
2016-08-15T03:01:39.350Z,0
2016-08-15T03:02:39.539Z,0
2016-08-15T03:03:39.254Z,0
2016-08-15T03:04:39.592Z,0
2016-08-15T03:05:39.218Z,0
2016-08-15T03:06:39.243Z,0
2016-08-15T03:07:39.246Z,0
2016-08-15T03:08:39.270Z,0
2016-08-15T03:09:39.227Z,0
2016-08-15T03:10:39.264Z,0
2016-08-15T03:11:39.237Z,0
2016-08-15T03:12:39.273Z,0
2016-08-15T03:13:39.213Z,0
2016-08-15T03:14:39.248Z,0
2016-08-15T03:15:39.241Z,0
2016-08-15T03:16:39.269Z,0
2016-08-15T03:17:39.255Z,0
2016-08-15T03:18:39.264Z,0
2016-08-15T03:19:39.255Z,0
2016-08-15T03:20:39.274Z,0
2016-08-15T03:21:39.260Z,0
2016-08-15T03:22:39.271Z,0
2016-08-15T03:23:39.258Z,0
2016-08-15T03:24:39.251Z,0
2016-08-15T03:25:39.436Z,0
2016-08-15T03:26:39.281Z,0
2016-08-15T03:27:39.245Z,0
2016-08-15T03:28:39.272Z,0
2016-08-15T03:29:39.269Z,0
2016-08-15T03:30:39.237Z,0
2016-08-15T03:31:39.634Z,0
2016-08-15T03:32:39.239Z,0
2016-08-15T03:33:39.276Z,0
2016-08-15T03:34:39.451Z,0
2016-08-15T03:35:39.263Z,0
2016-08-15T03:36:39.252Z,0
2016-08-15T03:37:39.261Z,4
2016-08-15T03:38:39.264Z,4
2016-08-15T03:39:39.263Z,4
2016-08-15T03:40:39.357Z,0
2016-08-15T03:41:39.321Z,0
2016-08-15T03:42:39.399Z,4
2016-08-15T03:43:39.402Z,4
2016-08-15T03:44:39.323Z,4
2016-08-15T03:45:39.288Z,4
2016-08-15T03:46:39.330Z,4
2016-08-15T03:47:39.301Z,8
2016-08-15T03:48:39.307Z,8
2016-08-15T03:49:39.261Z,8
2016-08-15T03:50:39.341Z,12
2016-08-15T03:51:39.258Z,12
2016-08-15T03:52:39.257Z,12
2016-08-15T03:53:39.286Z,16
2016-08-15T03:54:39.264Z,16
2016-08-15T03:55:39.297Z,20
2016-08-15T03:56:39.260Z,20
2016-08-15T03:57:39.279Z,24
2016-08-15T03:58:39.421Z,28
2016-08-15T03:59:39.266Z,32
2016-08-15T04:00:39.303Z,40
2016-08-15T04:01:39.306Z,40
2016-08-15T04:02:39.315Z,48
2016-08-15T04:03:39.278Z,52
2016-08-15T04:04:39.314Z,60
2016-08-15T04:05:39.289Z,68
2016-08-15T04:06:39.283Z,76
2016-08-15T04:07:39.273Z,84
2016-08-15T04:08:39.275Z,96
2016-08-15T04:09:39.287Z,108
2016-08-15T04:10:39.288Z,116
2016-08-15T04:11:39.311Z,128
2016-08-15T04:12:39.289Z,136
2016-08-15T04:13:39.327Z,148
2016-08-15T04:14:39.302Z,160
2016-08-15T04:15:39.276Z,176
2016-08-15T04:16:39.329Z,188
2016-08-15T04:17:39.293Z,200
2016-08-15T04:18:39.283Z,212
2016-08-15T04:19:39.320Z,228
2016-08-15T04:20:39.305Z,248
2016-08-15T04:21:39.292Z,268
2016-08-15T04:22:39.562Z,288
2016-08-15T04:23:39.304Z,304
2016-08-15T04:24:39.318Z,324
2016-08-15T04:25:39.292Z,348
2016-08-15T04:26:39.310Z,376
2016-08-15T04:27:39.421Z,400
2016-08-15T04:28:39.325Z,432
2016-08-15T04:29:39.304Z,464
2016-08-15T04:30:39.337Z,496
2016-08-15T04:31:39.514Z,528
2016-08-15T04:32:39.325Z,560
2016-08-15T04:33:39.394Z,592
2016-08-15T04:34:39.298Z,624
2016-08-15T04:35:39.326Z,660
2016-08-15T04:36:39.321Z,696
2016-08-15T04:37:39.300Z,728
2016-08-15T04:38:39.310Z,760
2016-08-15T04:39:39.276Z,792
2016-08-15T04:40:39.326Z,820
2016-08-15T04:41:39.306Z,848
2016-08-15T04:42:39.364Z,868
2016-08-15T04:43:39.538Z,896
2016-08-15T04:44:39.318Z,928
2016-08-15T04:45:39.290Z,976
2016-08-15T04:46:39.328Z,1028
2016-08-15T04:47:39.317Z,1096
2016-08-15T04:48:39.310Z,1172
2016-08-15T04:49:39.304Z,1248
2016-08-15T04:50:39.311Z,1304
2016-08-15T04:51:39.306Z,1344
2016-08-15T04:52:39.337Z,1384
2016-08-15T04:53:39.305Z,1428
2016-08-15T04:54:39.315Z,1468
2016-08-15T04:55:39.335Z,1520
2016-08-15T04:56:39.297Z,1600
2016-08-15T04:57:39.318Z,1688
2016-08-15T04:58:39.325Z,1760
2016-08-15T04:59:39.330Z,1804
2016-08-15T05:00:39.344Z,1836
2016-08-15T05:01:39.364Z,1876
2016-08-15T05:02:39.290Z,1948
2016-08-15T05:03:39.402Z,2040
2016-08-15T05:04:39.322Z,2136
2016-08-15T05:05:39.343Z,2244
2016-08-15T05:06:39.333Z,2348
2016-08-15T05:07:39.417Z,2444
2016-08-15T05:08:39.332Z,2548
2016-08-15T05:09:39.336Z,2652
2016-08-15T05:10:39.358Z,2772
2016-08-15T05:11:39.378Z,2920
2016-08-15T05:12:39.352Z,3084
2016-08-15T05:13:39.400Z,3240
2016-08-15T05:14:39.375Z,3360
2016-08-15T05:15:39.372Z,3448
2016-08-15T05:16:39.343Z,3500
2016-08-15T05:17:39.346Z,3516
2016-08-15T05:18:39.375Z,3516
2016-08-15T05:19:39.336Z,3544
2016-08-15T05:20:39.335Z,3612
2016-08-15T05:21:39.343Z,3712
2016-08-15T05:22:39.352Z,3816
2016-08-15T05:23:39.355Z,3916
2016-08-15T05:24:39.321Z,4048
2016-08-15T05:25:39.354Z,4216
2016-08-15T05:26:39.334Z,4388
2016-08-15T05:27:39.358Z,4556
2016-08-15T05:28:39.351Z,4732
2016-08-15T05:29:39.357Z,4920
2016-08-15T05:30:39.368Z,5120
2016-08-15T05:31:39.340Z,5300
2016-08-15T05:32:39.352Z,5436
2016-08-15T05:33:39.357Z,5524
2016-08-15T05:34:39.387Z,5588
2016-08-15T05:35:39.364Z,5648
2016-08-15T05:36:39.360Z,5744
2016-08-15T05:37:39.368Z,5924
2016-08-15T05:38:39.355Z,6140
2016-08-15T05:39:39.409Z,6296
2016-08-15T05:40:39.386Z,6440
2016-08-15T05:41:39.367Z,6620
2016-08-15T05:42:39.400Z,6808
2016-08-15T05:43:39.349Z,6892
2016-08-15T05:44:39.398Z,6876
2016-08-15T05:45:39.398Z,6888
2016-08-15T05:46:39.397Z,7028
2016-08-15T05:47:39.372Z,7188
2016-08-15T05:48:39.395Z,7228
2016-08-15T05:49:39.392Z,7256
2016-08-15T05:50:39.414Z,7344
2016-08-15T05:51:39.382Z,7476
2016-08-15T05:52:39.420Z,7548
2016-08-15T05:53:39.384Z,7568
2016-08-15T05:54:39.373Z,7656
2016-08-15T05:55:39.370Z,7792
2016-08-15T05:56:39.382Z,7828
2016-08-15T05:57:39.366Z,7780
2016-08-15T05:58:39.385Z,7748
2016-08-15T05:59:39.366Z,7788
2016-08-15T06:00:39.385Z,7936
2016-08-15T06:01:39.400Z,8160
2016-08-15T06:02:39.371Z,8420
2016-08-15T06:03:39.421Z,8404
2016-08-15T06:04:39.411Z,8132
2016-08-15T06:05:39.470Z,7572
2016-08-15T06:06:39.429Z,6964
2016-08-15T06:07:39.432Z,6380
2016-08-15T06:08:39.394Z,6036
2016-08-15T06:09:39.411Z,5848
2016-08-15T06:10:39.418Z,5788
2016-08-15T06:11:39.482Z,5788
2016-08-15T06:12:39.417Z,5616
2016-08-15T06:13:39.402Z,5316
2016-08-15T06:14:39.387Z,5068
2016-08-15T06:15:39.420Z,4996
2016-08-15T06:16:39.414Z,5004
2016-08-15T06:17:39.440Z,5040
2016-08-15T06:18:39.387Z,5000
2016-08-15T06:19:39.405Z,4920
2016-08-15T06:20:39.444Z,4796
2016-08-15T06:21:39.449Z,4680
2016-08-15T06:22:39.367Z,4624
2016-08-15T06:23:39.392Z,4600
2016-08-15T06:24:39.456Z,4512
2016-08-15T06:25:39.434Z,4420
2016-08-15T06:26:39.415Z,4416
2016-08-15T06:27:39.417Z,4420
2016-08-15T06:28:39.434Z,4348
2016-08-15T06:29:39.432Z,4304
2016-08-15T06:30:39.461Z,4304
2016-08-15T06:31:39.414Z,4304
2016-08-15T06:32:39.462Z,4308
2016-08-15T06:33:39.452Z,4320
2016-08-15T06:34:39.418Z,4300
2016-08-15T06:35:42.581Z,4292
2016-08-15T06:36:39.799Z,4308
2016-08-15T06:37:39.411Z,4332
2016-08-15T06:38:39.447Z,4344
2016-08-15T06:39:39.437Z,4332
2016-08-15T06:40:39.472Z,4304
2016-08-15T06:41:39.463Z,4300
2016-08-15T06:42:39.487Z,4300
2016-08-15T06:43:39.463Z,4356
2016-08-15T06:44:39.598Z,4356
2016-08-15T06:45:39.502Z,4292
2016-08-15T06:46:39.451Z,4328
2016-08-15T06:47:39.495Z,4400
2016-08-15T06:48:39.496Z,4396
2016-08-15T06:49:39.521Z,4416
2016-08-15T06:50:39.507Z,4448
2016-08-15T06:51:39.502Z,4492
2016-08-15T06:52:39.518Z,4512
2016-08-15T06:53:39.472Z,4508
2016-08-15T06:54:39.515Z,4496
2016-08-15T06:55:39.449Z,4516
2016-08-15T06:56:39.439Z,4516
2016-08-15T06:57:39.450Z,4576
2016-08-15T06:58:39.438Z,4628
2016-08-15T06:59:39.449Z,4664
2016-08-15T07:00:39.460Z,4620
2016-08-15T07:01:39.463Z,4660
2016-08-15T07:02:39.448Z,4744
2016-08-15T07:03:39.448Z,4836
2016-08-15T07:04:39.733Z,4888
2016-08-15T07:05:39.484Z,4952
2016-08-15T07:06:39.525Z,5016
2016-08-15T07:07:39.481Z,5124
2016-08-15T07:08:39.452Z,5192
2016-08-15T07:09:39.471Z,5296
2016-08-15T07:10:39.465Z,5392
2016-08-15T07:11:39.455Z,5332
2016-08-15T07:12:39.465Z,5336
2016-08-15T07:13:39.496Z,5304
2016-08-15T07:14:39.477Z,5272
2016-08-15T07:15:39.422Z,5228
2016-08-15T07:16:39.479Z,5224
2016-08-15T07:17:39.437Z,5240
2016-08-15T07:18:39.480Z,5340
2016-08-15T07:19:39.455Z,5460
2016-08-15T07:20:39.455Z,5460
2016-08-15T07:21:39.430Z,5392
2016-08-15T07:22:39.424Z,5432
2016-08-15T07:23:39.478Z,5440
2016-08-15T07:24:39.454Z,5472
2016-08-15T07:25:39.446Z,5500
2016-08-15T07:26:39.453Z,5640
2016-08-15T07:27:39.477Z,5592
2016-08-15T07:28:39.462Z,5560
2016-08-15T07:29:39.498Z,5764
2016-08-15T07:30:39.463Z,5628
2016-08-15T07:31:39.481Z,5448
2016-08-15T07:32:39.463Z,5472
2016-08-15T07:33:39.480Z,5464
2016-08-15T07:34:39.444Z,5488
2016-08-15T07:35:39.540Z,5544
2016-08-15T07:36:39.513Z,5616
2016-08-15T07:37:39.451Z,6568
2016-08-15T07:38:39.499Z,6356
2016-08-15T07:39:39.483Z,6128
2016-08-15T07:40:39.466Z,5796
2016-08-15T07:41:39.488Z,5768
2016-08-15T07:42:39.517Z,6008
2016-08-15T07:43:39.495Z,6840
2016-08-15T07:44:39.517Z,6512
2016-08-15T07:45:39.516Z,6944
2016-08-15T07:46:39.514Z,7044
2016-08-15T07:47:39.482Z,7292
2016-08-15T07:48:39.469Z,6192
2016-08-15T07:49:39.500Z,6760
2016-08-15T07:50:40.194Z,6008
2016-08-15T07:51:39.518Z,6140
2016-08-15T07:52:39.484Z,6536
2016-08-15T07:53:39.500Z,7860
2016-08-15T07:54:39.533Z,7388
2016-08-15T07:55:39.549Z,6388
2016-08-15T07:56:39.512Z,5648
2016-08-15T07:57:39.465Z,6336
2016-08-15T07:58:39.511Z,6260
2016-08-15T07:59:39.487Z,6180
2016-08-15T08:00:39.533Z,6696
2016-08-15T08:01:39.552Z,7620
2016-08-15T08:02:39.528Z,8244
2016-08-15T08:03:39.549Z,8632
2016-08-15T08:04:39.512Z,9276
2016-08-15T08:05:39.487Z,9040
2016-08-15T08:06:39.534Z,8220
2016-08-15T08:07:39.486Z,7888
2016-08-15T08:08:39.517Z,8284
2016-08-15T08:09:39.551Z,9340
2016-08-15T08:10:39.533Z,9280
2016-08-15T08:11:39.560Z,9456
2016-08-15T08:12:39.591Z,8680
2016-08-15T08:13:39.475Z,7792
2016-08-15T08:14:39.529Z,7244
2016-08-15T08:15:39.524Z,7632
2016-08-15T08:16:39.558Z,7428
2016-08-15T08:17:39.531Z,6288
2016-08-15T08:18:39.501Z,6000
2016-08-15T08:19:39.638Z,7156
2016-08-15T08:20:39.559Z,7212
2016-08-15T08:21:39.528Z,6240
2016-08-15T08:22:39.568Z,6220
2016-08-15T08:23:39.513Z,6996
2016-08-15T08:24:39.546Z,7880
2016-08-15T08:25:39.508Z,7104
2016-08-15T08:26:39.677Z,6404
2016-08-15T08:27:39.498Z,6344
2016-08-15T08:28:39.529Z,6644
2016-08-15T08:29:39.544Z,7632
2016-08-15T08:30:39.500Z,8160
2016-08-15T08:31:39.580Z,8176
2016-08-15T08:32:39.544Z,8228
2016-08-15T08:33:39.548Z,8376
2016-08-15T08:34:39.583Z,8228
2016-08-15T08:35:39.532Z,7928
2016-08-15T08:36:39.567Z,7640
2016-08-15T08:37:39.543Z,7692
2016-08-15T08:38:39.581Z,8004
2016-08-15T08:39:39.515Z,8068
2016-08-15T08:40:39.513Z,7968
2016-08-15T08:41:39.543Z,8104
2016-08-15T08:42:39.528Z,7940
2016-08-15T08:43:39.543Z,7792
2016-08-15T08:44:39.562Z,7344
2016-08-15T08:45:39.559Z,6960
2016-08-15T08:46:39.549Z,7024
2016-08-15T08:47:39.545Z,6840
2016-08-15T08:48:39.545Z,7204
2016-08-15T08:49:39.549Z,7768
2016-08-15T08:50:39.576Z,8796
2016-08-15T08:51:39.549Z,10132
2016-08-15T08:52:39.566Z,10892
2016-08-15T08:53:39.576Z,11596
2016-08-15T08:54:39.567Z,11704
2016-08-15T08:55:39.546Z,11084
2016-08-15T08:56:39.567Z,8716
2016-08-15T08:57:39.546Z,7408
2016-08-15T08:58:39.553Z,7484
2016-08-15T08:59:39.543Z,8180
2016-08-15T09:00:39.616Z,8620
2016-08-15T09:01:39.526Z,9216
2016-08-15T09:02:39.590Z,9904
2016-08-15T09:03:39.671Z,10864
2016-08-15T09:04:39.608Z,11984
2016-08-15T09:05:39.590Z,13244
2016-08-15T09:06:39.575Z,14780
2016-08-15T09:07:39.555Z,15520
2016-08-15T09:08:39.578Z,15644
2016-08-15T09:09:39.629Z,14320
2016-08-15T09:10:39.606Z,14256
2016-08-15T09:11:39.597Z,13592
2016-08-15T09:12:39.575Z,13464
2016-08-15T09:13:39.636Z,12808
2016-08-15T09:14:39.567Z,12508
2016-08-15T09:15:39.543Z,12520
2016-08-15T09:16:39.579Z,12176
2016-08-15T09:17:39.576Z,12588
2016-08-15T09:18:39.608Z,12276
2016-08-15T09:19:39.591Z,11664
2016-08-15T09:20:39.563Z,10988
2016-08-15T09:21:39.598Z,10204
2016-08-15T09:22:39.695Z,9824
2016-08-15T09:23:39.594Z,9872
2016-08-15T09:24:39.560Z,9792
2016-08-15T09:25:39.683Z,9756
2016-08-15T09:26:39.604Z,9708
2016-08-15T09:27:39.597Z,9492
2016-08-15T09:28:39.596Z,9332
2016-08-15T09:29:39.735Z,9288
2016-08-15T09:30:39.622Z,9552
2016-08-15T09:31:39.614Z,9604
2016-08-15T09:32:39.607Z,8788
2016-08-15T09:33:39.611Z,8404
2016-08-15T09:34:39.718Z,8328
2016-08-15T09:35:39.653Z,8344
2016-08-15T09:36:39.597Z,8236
2016-08-15T09:37:39.613Z,7960
2016-08-15T09:38:39.666Z,7704
2016-08-15T09:39:39.612Z,7556
2016-08-15T09:40:39.609Z,7584
2016-08-15T09:41:39.626Z,7596
2016-08-15T09:42:39.638Z,7680
2016-08-15T09:43:39.626Z,7688
2016-08-15T09:44:39.630Z,7708
2016-08-15T09:45:39.611Z,7820
2016-08-15T09:46:39.599Z,8004
2016-08-15T09:47:40.181Z,8076
2016-08-15T09:48:39.608Z,8056
2016-08-15T09:49:39.627Z,8456
2016-08-15T09:50:39.640Z,8572
2016-08-15T09:51:39.653Z,8352
2016-08-15T09:52:39.599Z,8396
2016-08-15T09:53:39.624Z,8688
2016-08-15T09:54:39.652Z,9068
2016-08-15T09:55:39.632Z,9528
2016-08-15T09:56:39.655Z,9960
2016-08-15T09:57:39.665Z,10388
2016-08-15T09:58:39.653Z,10812
2016-08-15T09:59:39.693Z,11288
2016-08-15T10:00:39.637Z,12324
2016-08-15T10:01:39.632Z,13184
2016-08-15T10:02:39.668Z,14476
2016-08-15T10:03:39.688Z,14168
2016-08-15T10:04:39.737Z,13048
2016-08-15T10:05:39.679Z,12408
2016-08-15T10:06:39.648Z,12992
2016-08-15T10:07:39.626Z,12924
2016-08-15T10:08:39.667Z,12908
2016-08-15T10:09:39.671Z,12612
2016-08-15T10:10:39.653Z,12396
2016-08-15T10:11:39.643Z,12512
2016-08-15T10:12:39.697Z,12764
2016-08-15T10:13:39.674Z,13280
2016-08-15T10:14:39.644Z,13756
2016-08-15T10:15:39.687Z,14056
2016-08-15T10:16:39.649Z,13988
2016-08-15T10:17:39.626Z,12840
2016-08-15T10:18:39.729Z,11548
2016-08-15T10:19:40.186Z,11516
2016-08-15T10:20:39.689Z,12300
2016-08-15T10:21:39.693Z,12588
2016-08-15T10:22:39.655Z,12928
2016-08-15T10:23:39.748Z,12844
2016-08-15T10:24:39.735Z,13040
2016-08-15T10:25:39.750Z,14332
2016-08-15T10:26:39.668Z,14868
2016-08-15T10:27:39.690Z,15128
2016-08-15T10:28:39.677Z,15176
2016-08-15T10:29:39.739Z,14392
2016-08-15T10:30:39.702Z,13976
2016-08-15T10:31:39.693Z,14132
2016-08-15T10:32:39.654Z,14276
2016-08-15T10:33:39.644Z,14488
2016-08-15T10:34:39.623Z,15036
2016-08-15T10:35:39.615Z,15576
2016-08-15T10:36:39.650Z,15448
2016-08-15T10:37:39.656Z,14492
2016-08-15T10:38:39.641Z,13616
2016-08-15T10:39:39.625Z,13920
2016-08-15T10:40:39.668Z,14844
2016-08-15T10:41:39.672Z,15752
2016-08-15T10:42:39.654Z,15868
2016-08-15T10:43:39.675Z,14860
2016-08-15T10:44:39.676Z,14776
2016-08-15T10:45:39.660Z,15148
2016-08-15T10:46:39.675Z,15368
2016-08-15T10:47:39.675Z,15324
2016-08-15T10:48:39.725Z,15232
2016-08-15T10:49:39.647Z,14344
2016-08-15T10:50:39.740Z,14044
2016-08-15T10:51:39.673Z,13428
2016-08-15T10:52:39.687Z,12692
2016-08-15T10:53:39.739Z,12492
2016-08-15T10:54:39.669Z,12268
2016-08-15T10:55:39.678Z,12124
2016-08-15T10:56:39.688Z,12476
2016-08-15T10:57:39.672Z,12784
2016-08-15T10:58:39.679Z,12900
2016-08-15T10:59:39.687Z,12996
2016-08-15T11:00:39.691Z,13028
2016-08-15T11:01:39.739Z,13424
2016-08-15T11:02:39.713Z,14072
2016-08-15T11:03:39.716Z,15100
2016-08-15T11:04:39.708Z,16212
2016-08-15T11:05:39.738Z,17076
2016-08-15T11:06:39.728Z,17668
2016-08-15T11:07:39.754Z,18912
2016-08-15T11:08:39.684Z,18848
2016-08-15T11:09:39.701Z,18784
2016-08-15T11:10:39.675Z,18816
2016-08-15T11:11:39.765Z,18944
2016-08-15T11:12:39.793Z,19072
2016-08-15T11:13:39.746Z,19200
2016-08-15T11:14:39.686Z,19392
2016-08-15T11:15:39.882Z,19488
2016-08-15T11:16:39.741Z,19712
2016-08-15T11:17:39.754Z,19936
2016-08-15T11:18:39.734Z,19584
2016-08-15T11:19:39.708Z,19520
2016-08-15T11:20:39.704Z,19488
2016-08-15T11:21:39.764Z,19392
2016-08-15T11:22:39.685Z,19424
2016-08-15T11:23:39.700Z,19584
2016-08-15T11:24:39.710Z,19680
2016-08-15T11:25:39.727Z,19520
2016-08-15T11:26:39.837Z,19168
2016-08-15T11:27:39.794Z,18880
2016-08-15T11:28:39.722Z,18168
2016-08-15T11:29:39.707Z,17772
2016-08-15T11:30:39.705Z,17472
2016-08-15T11:31:39.759Z,17380
2016-08-15T11:32:39.713Z,17300
2016-08-15T11:33:39.724Z,17628
2016-08-15T11:34:39.738Z,18040
2016-08-15T11:35:39.673Z,17940
2016-08-15T11:36:39.699Z,17732
2016-08-15T11:37:39.791Z,17312
2016-08-15T11:38:39.739Z,16884
2016-08-15T11:39:39.703Z,16556
2016-08-15T11:40:39.764Z,16188
2016-08-15T11:41:39.735Z,16276
2016-08-15T11:42:39.823Z,16420
2016-08-15T11:43:39.792Z,16612
2016-08-15T11:44:39.757Z,16560
2016-08-15T11:45:39.722Z,16412
2016-08-15T11:46:39.749Z,16184
2016-08-15T11:47:39.735Z,16072
2016-08-15T11:48:39.724Z,15948
2016-08-15T11:49:39.704Z,15808
2016-08-15T11:50:39.723Z,15832
2016-08-15T11:51:39.746Z,16056
2016-08-15T11:52:39.703Z,16496
2016-08-15T11:53:39.827Z,17020
2016-08-15T11:54:39.748Z,17668
2016-08-15T11:55:39.739Z,18148
2016-08-15T11:56:39.808Z,18688
2016-08-15T11:57:39.779Z,19104
2016-08-15T11:58:39.757Z,19296
2016-08-15T11:59:39.778Z,19200
2016-08-15T12:00:39.784Z,19232
2016-08-15T12:01:39.734Z,18912
2016-08-15T12:02:39.748Z,19040
2016-08-15T12:03:39.748Z,18976
2016-08-15T12:04:39.798Z,18848
2016-08-15T12:05:39.763Z,18848
2016-08-15T12:06:39.754Z,18220
2016-08-15T12:07:39.780Z,17756
2016-08-15T12:08:39.753Z,17548
2016-08-15T12:09:39.782Z,17368
2016-08-15T12:10:39.751Z,17524
2016-08-15T12:11:39.731Z,17340
2016-08-15T12:12:39.740Z,17556
2016-08-15T12:13:39.749Z,18264
2016-08-15T12:14:39.797Z,18784
2016-08-15T12:15:39.785Z,18076
2016-08-15T12:16:39.781Z,18208
2016-08-15T12:17:39.604Z,18688
2016-08-15T12:18:39.801Z,17896
2016-08-15T12:19:39.748Z,16660
2016-08-15T12:20:39.750Z,15472
2016-08-15T12:21:39.762Z,14348
2016-08-15T12:22:39.769Z,13472
2016-08-15T12:23:39.760Z,12460
2016-08-15T12:24:39.808Z,11504
2016-08-15T12:25:39.819Z,10880
2016-08-15T12:26:39.768Z,10824
2016-08-15T12:27:39.827Z,10964
2016-08-15T12:28:39.783Z,10924
2016-08-15T12:29:39.782Z,10884
2016-08-15T12:30:39.873Z,10240
2016-08-15T12:31:39.826Z,10288
2016-08-15T12:32:39.800Z,11324
2016-08-15T12:33:39.805Z,11632
2016-08-15T12:34:39.780Z,12020
2016-08-15T12:35:39.819Z,12536
2016-08-15T12:36:39.790Z,12436
2016-08-15T12:37:39.755Z,12116
2016-08-15T12:38:39.779Z,12728
2016-08-15T12:39:39.762Z,13600
2016-08-15T12:40:39.769Z,14176
2016-08-15T12:41:39.820Z,14548
2016-08-15T12:42:39.769Z,13576
2016-08-15T12:43:39.792Z,13168
2016-08-15T12:44:39.797Z,12148
2016-08-15T12:45:39.804Z,11280
2016-08-15T12:46:39.783Z,10744
2016-08-15T12:47:39.807Z,10348
2016-08-15T12:48:39.819Z,9976
2016-08-15T12:49:39.848Z,9448
2016-08-15T12:50:39.809Z,8916
2016-08-15T12:51:39.826Z,8044
2016-08-15T12:52:39.781Z,7900
2016-08-15T12:53:39.896Z,7544
2016-08-15T12:54:39.801Z,7404
2016-08-15T12:55:39.790Z,7432
2016-08-15T12:56:39.817Z,7456
2016-08-15T12:57:39.819Z,7416
2016-08-15T12:58:39.829Z,7532
2016-08-15T12:59:39.819Z,7924
2016-08-15T13:00:39.857Z,8400
2016-08-15T13:01:39.804Z,8816
2016-08-15T13:02:39.848Z,9132
2016-08-15T13:03:39.870Z,9368
2016-08-15T13:04:39.844Z,9544
2016-08-15T13:05:39.817Z,9792
2016-08-15T13:06:39.846Z,10064
2016-08-15T13:07:39.842Z,10224
2016-08-15T13:08:39.872Z,10156
2016-08-15T13:09:39.796Z,10092
2016-08-15T13:10:39.831Z,10176
2016-08-15T13:11:39.822Z,9860
2016-08-15T13:12:39.816Z,9644
2016-08-15T13:13:39.806Z,10016
2016-08-15T13:14:39.842Z,10024
2016-08-15T13:15:39.859Z,10076
2016-08-15T13:16:39.828Z,10248
2016-08-15T13:17:39.829Z,10944
2016-08-15T13:18:39.850Z,11472
2016-08-15T13:19:39.861Z,11784
2016-08-15T13:20:39.849Z,12048
2016-08-15T13:21:39.868Z,12320
2016-08-15T13:22:39.898Z,12276
2016-08-15T13:23:39.840Z,12324
2016-08-15T13:24:39.832Z,12480
2016-08-15T13:25:39.847Z,12692
2016-08-15T13:26:39.786Z,12700
2016-08-15T13:27:39.845Z,12696
2016-08-15T13:28:39.799Z,12440
2016-08-15T13:29:39.806Z,11748
2016-08-15T13:30:39.835Z,10856
2016-08-15T13:31:39.863Z,10168
2016-08-15T13:32:39.840Z,9664
2016-08-15T13:33:39.847Z,9244
2016-08-15T13:34:39.906Z,8856
2016-08-15T13:35:39.837Z,8640
2016-08-15T13:36:39.846Z,8304